createdAt,value
2023-01-08T00:52:36.004Z,29.33
2023-01-08T01:23:05.022Z,28.43
2023-01-08T01:48:28.507Z,27.60
2023-01-08T02:13:21.653Z,27.00
2023-01-08T02:34:05.528Z,21.47
2023-01-08T03:29:57.117Z,16.03
2023-01-08T04:05:18.037Z,14.93
2023-01-08T04:35:15.689Z,12.00
2023-01-08T04:56:04.969Z,14.33
2023-01-08T05:21:32.731Z,11.07
2023-01-08T05:57:12.718Z,11.10
2023-01-08T06:01:27.242Z,12.53
2023-01-08T06:27:31.477Z,11.23
2023-01-08T07:08:01.924Z,12.33
2023-01-08T07:38:16.624Z,12.27
2023-01-08T08:13:18.335Z,12.17
2023-01-08T08:39:04.008Z,13.07
2023-01-08T09:24:44.947Z,13.03
2023-01-08T09:59:51.586Z,12.70
2023-01-08T11:05:43.775Z,17.47
2023-01-08T11:26:25.689Z,15.23
2023-01-08T11:56:41.245Z,16.83
2023-01-08T12:47:47.655Z,15.80
2023-01-08T13:13:08.402Z,17.60
2023-01-08T14:08:53.175Z,19.53
2023-01-08T14:43:50.429Z,18.67
2023-01-08T16:25:18.165Z,21.23
2023-01-08T16:45:52.740Z,20.63
2023-01-08T17:16:21.783Z,20.57
2023-01-08T18:06:32.938Z,22.43
2023-01-08T18:36:59.496Z,22.60
2023-01-08T18:57:20.035Z,22.43
2023-01-08T19:17:54.479Z,22.63
2023-01-08T19:47:57.985Z,25.67
2023-01-08T20:08:54.485Z,24.83
2023-01-08T20:44:28.153Z,26.93
2023-01-08T20:48:48.422Z,26.27
2023-01-08T21:14:52.549Z,28.53
2023-01-08T21:49:40.957Z,30.13
2023-01-08T22:15:38.740Z,28.37
2023-01-08T22:50:34.383Z,28.70
2023-01-08T23:16:25.284Z,29.57
2023-01-08T23:41:42.351Z,29.83
